sensor_id;sensor_type;location;lat;lon;timestamp;P1;durP1;ratioP1;P2;durP2;ratioP2
66567;SDS011;53422;49.296;6.900;2024-02-15T00:00:21;7.82;;;3.67;;
66567;SDS011;53422;49.296;6.900;2024-02-15T00:02:47;8.55;;;3.83;;
66567;SDS011;53422;49.296;6.900;2024-02-15T00:05:13;5.88;;;3.72;;
66567;SDS011;53422;49.296;6.900;2024-02-15T00:07:41;6.35;;;4.03;;
66567;SDS011;53422;49.296;6.900;2024-02-15T00:10:07;4.90;;;3.08;;
66567;SDS011;53422;49.296;6.900;2024-02-15T00:12:33;5.90;;;3.10;;
66567;SDS011;53422;49.296;6.900;2024-02-15T00:14:59;5.20;;;2.20;;
66567;SDS011;53422;49.296;6.900;2024-02-15T00:17:25;4.25;;;3.28;;
66567;SDS011;53422;49.296;6.900;2024-02-15T00:19:54;4.50;;;2.55;;
66567;SDS011;53422;49.296;6.900;2024-02-15T00:22:20;4.97;;;2.95;;
66567;SDS011;53422;49.296;6.900;2024-02-15T00:24:46;6.18;;;3.20;;
66567;SDS011;53422;49.296;6.900;2024-02-15T00:27:14;8.38;;;3.35;;
66567;SDS011;53422;49.296;6.900;2024-02-15T00:29:40;8.25;;;3.78;;
66567;SDS011;53422;49.296;6.900;2024-02-15T00:32:06;7.80;;;3.25;;
66567;SDS011;53422;49.296;6.900;2024-02-15T00:34:32;6.93;;;3.08;;
66567;SDS011;53422;49.296;6.900;2024-02-15T00:36:58;9.02;;;3.47;;
66567;SDS011;53422;49.296;6.900;2024-02-15T00:39:24;7.60;;;4.15;;
66567;SDS011;53422;49.296;6.900;2024-02-15T00:41:50;7.57;;;3.95;;
66567;SDS011;53422;49.296;6.900;2024-02-15T00:44:16;7.85;;;3.35;;
66567;SDS011;53422;49.296;6.900;2024-02-15T00:46:42;8.15;;;3.67;;
66567;SDS011;53422;49.296;6.900;2024-02-15T00:49:08;7.88;;;2.95;;
66567;SDS011;53422;49.296;6.900;2024-02-15T00:51:37;8.98;;;4.85;;
66567;SDS011;53422;49.296;6.900;2024-02-15T00:54:03;7.43;;;3.97;;
66567;SDS011;53422;49.296;6.900;2024-02-15T00:56:29;6.55;;;3.15;;
66567;SDS011;53422;49.296;6.900;2024-02-15T00:58:56;8.18;;;4.18;;
66567;SDS011;53422;49.296;6.900;2024-02-15T01:01:22;7.75;;;3.90;;
66567;SDS011;53422;49.296;6.900;2024-02-15T01:04:02;5.32;;;3.10;;
66567;SDS011;53422;49.296;6.900;2024-02-15T01:06:47;6.00;;;3.63;;
66567;SDS011;53422;49.296;6.900;2024-02-15T01:09:13;6.63;;;3.67;;
66567;SDS011;53422;49.296;6.900;2024-02-15T01:11:39;8.68;;;3.72;;
66567;SDS011;53422;49.296;6.900;2024-02-15T01:14:04;14.05;;;3.92;;
66567;SDS011;53422;49.296;6.900;2024-02-15T01:16:31;4.65;;;2.80;;
66567;SDS011;53422;49.296;6.900;2024-02-15T01:18:57;7.85;;;3.55;;
66567;SDS011;53422;49.296;6.900;2024-02-15T01:21:23;6.18;;;3.30;;
66567;SDS011;53422;49.296;6.900;2024-02-15T01:23:48;7.60;;;3.53;;
66567;SDS011;53422;49.296;6.900;2024-02-15T01:26:14;8.98;;;3.95;;
66567;SDS011;53422;49.296;6.900;2024-02-15T01:28:40;5.45;;;3.08;;
66567;SDS011;53422;49.296;6.900;2024-02-15T01:31:08;7.05;;;3.75;;
66567;SDS011;53422;49.296;6.900;2024-02-15T01:33:36;8.35;;;4.50;;
66567;SDS011;53422;49.296;6.900;2024-02-15T01:36:02;5.80;;;3.55;;
66567;SDS011;53422;49.296;6.900;2024-02-15T01:38:29;7.20;;;4.00;;
66567;SDS011;53422;49.296;6.900;2024-02-15T01:40:54;5.78;;;3.17;;
66567;SDS011;53422;49.296;6.900;2024-02-15T01:43:20;7.18;;;3.67;;
66567;SDS011;53422;49.296;6.900;2024-02-15T01:45:46;7.55;;;4.10;;
66567;SDS011;53422;49.296;6.900;2024-02-15T01:48:14;7.05;;;3.97;;
66567;SDS011;53422;49.296;6.900;2024-02-15T01:50:41;9.02;;;3.75;;
66567;SDS011;53422;49.296;6.900;2024-02-15T01:53:07;8.65;;;3.92;;
66567;SDS011;53422;49.296;6.900;2024-02-15T01:55:35;8.13;;;3.58;;
66567;SDS011;53422;49.296;6.900;2024-02-15T01:58:02;8.48;;;3.83;;
66567;SDS011;53422;49.296;6.900;2024-02-15T02:00:29;9.43;;;3.40;;
66567;SDS011;53422;49.296;6.900;2024-02-15T02:02:56;8.25;;;4.35;;
66567;SDS011;53422;49.296;6.900;2024-02-15T02:05:27;5.90;;;3.40;;
66567;SDS011;53422;49.296;6.900;2024-02-15T02:07:54;8.50;;;3.28;;
66567;SDS011;53422;49.296;6.900;2024-02-15T02:10:24;9.60;;;3.80;;
66567;SDS011;53422;49.296;6.900;2024-02-15T02:12:52;8.70;;;3.72;;
66567;SDS011;53422;49.296;6.900;2024-02-15T02:15:18;8.20;;;3.13;;
66567;SDS011;53422;49.296;6.900;2024-02-15T02:17:50;8.50;;;2.63;;
66567;SDS011;53422;49.296;6.900;2024-02-15T02:20:16;6.70;;;3.47;;
66567;SDS011;53422;49.296;6.900;2024-02-15T02:22:42;8.10;;;3.30;;
66567;SDS011;53422;49.296;6.900;2024-02-15T02:25:11;6.25;;;3.63;;
66567;SDS011;53422;49.296;6.900;2024-02-15T02:27:38;10.73;;;3.95;;
66567;SDS011;53422;49.296;6.900;2024-02-15T02:30:12;7.55;;;3.90;;
66567;SDS011;53422;49.296;6.900;2024-02-15T02:32:44;8.05;;;3.33;;
66567;SDS011;53422;49.296;6.900;2024-02-15T02:35:13;7.60;;;3.75;;
66567;SDS011;53422;49.296;6.900;2024-02-15T02:37:41;11.05;;;3.47;;
66567;SDS011;53422;49.296;6.900;2024-02-15T02:40:07;5.82;;;3.05;;
66567;SDS011;53422;49.296;6.900;2024-02-15T02:42:56;9.50;;;2.80;;
66567;SDS011;53422;49.296;6.900;2024-02-15T02:45:24;7.10;;;2.45;;
66567;SDS011;53422;49.296;6.900;2024-02-15T02:47:50;4.93;;;2.85;;
66567;SDS011;53422;49.296;6.900;2024-02-15T02:50:19;5.15;;;3.17;;
66567;SDS011;53422;49.296;6.900;2024-02-15T02:52:48;8.70;;;3.75;;
66567;SDS011;53422;49.296;6.900;2024-02-15T02:55:14;5.82;;;2.83;;
66567;SDS011;53422;49.296;6.900;2024-02-15T02:57:40;6.20;;;3.10;;
66567;SDS011;53422;49.296;6.900;2024-02-15T03:00:08;4.75;;;3.28;;
66567;SDS011;53422;49.296;6.900;2024-02-15T03:02:40;6.93;;;3.45;;
66567;SDS011;53422;49.296;6.900;2024-02-15T03:05:06;5.20;;;3.15;;
66567;SDS011;53422;49.296;6.900;2024-02-15T03:07:33;6.35;;;3.33;;
66567;SDS011;53422;49.296;6.900;2024-02-15T03:10:02;6.03;;;2.85;;
66567;SDS011;53422;49.296;6.900;2024-02-15T03:12:29;7.78;;;3.63;;
66567;SDS011;53422;49.296;6.900;2024-02-15T03:14:55;5.15;;;2.65;;
66567;SDS011;53422;49.296;6.900;2024-02-15T03:17:23;6.32;;;2.95;;
66567;SDS011;53422;49.296;6.900;2024-02-15T03:19:48;4.50;;;3.17;;
66567;SDS011;53422;49.296;6.900;2024-02-15T03:22:14;11.27;;;2.70;;
66567;SDS011;53422;49.296;6.900;2024-02-15T03:24:40;7.88;;;3.40;;
66567;SDS011;53422;49.296;6.900;2024-02-15T03:27:07;4.22;;;2.67;;
66567;SDS011;53422;49.296;6.900;2024-02-15T03:29:35;8.55;;;3.40;;
66567;SDS011;53422;49.296;6.900;2024-02-15T03:32:01;5.75;;;3.50;;
66567;SDS011;53422;49.296;6.900;2024-02-15T03:34:31;5.30;;;3.35;;
66567;SDS011;53422;49.296;6.900;2024-02-15T03:36:57;7.13;;;3.25;;
66567;SDS011;53422;49.296;6.900;2024-02-15T03:39:26;4.70;;;2.78;;
66567;SDS011;53422;49.296;6.900;2024-02-15T03:41:52;5.03;;;3.22;;
66567;SDS011;53422;49.296;6.900;2024-02-15T03:44:18;6.50;;;3.70;;
66567;SDS011;53422;49.296;6.900;2024-02-15T03:46:44;9.75;;;4.60;;
66567;SDS011;53422;49.296;6.900;2024-02-15T03:49:19;7.15;;;3.58;;
66567;SDS011;53422;49.296;6.900;2024-02-15T03:51:45;5.53;;;3.38;;
66567;SDS011;53422;49.296;6.900;2024-02-15T03:54:11;9.18;;;3.67;;
66567;SDS011;53422;49.296;6.900;2024-02-15T03:56:45;5.03;;;3.05;;
66567;SDS011;53422;49.296;6.900;2024-02-15T03:59:12;5.65;;;2.88;;
66567;SDS011;53422;49.296;6.900;2024-02-15T04:01:38;5.10;;;3.47;;
66567;SDS011;53422;49.296;6.900;2024-02-15T04:04:04;6.30;;;3.75;;
66567;SDS011;53422;49.296;6.900;2024-02-15T04:06:30;5.95;;;3.45;;
66567;SDS011;53422;49.296;6.900;2024-02-15T04:08:58;4.45;;;2.85;;
66567;SDS011;53422;49.296;6.900;2024-02-15T04:11:24;6.03;;;2.85;;
66567;SDS011;53422;49.296;6.900;2024-02-15T04:13:50;5.53;;;2.63;;
66567;SDS011;53422;49.296;6.900;2024-02-15T04:16:16;5.22;;;3.10;;
66567;SDS011;53422;49.296;6.900;2024-02-15T04:18:42;6.07;;;3.22;;
66567;SDS011;53422;49.296;6.900;2024-02-15T04:21:10;5.32;;;2.90;;
66567;SDS011;53422;49.296;6.900;2024-02-15T04:23:36;5.25;;;3.40;;
66567;SDS011;53422;49.296;6.900;2024-02-15T04:26:01;9.82;;;3.63;;
66567;SDS011;53422;49.296;6.900;2024-02-15T04:28:28;7.00;;;2.63;;
66567;SDS011;53422;49.296;6.900;2024-02-15T04:30:54;7.38;;;3.47;;
66567;SDS011;53422;49.296;6.900;2024-02-15T04:33:20;7.22;;;2.80;;
66567;SDS011;53422;49.296;6.900;2024-02-15T04:35:46;10.43;;;3.40;;
66567;SDS011;53422;49.296;6.900;2024-02-15T04:38:13;6.18;;;3.60;;
66567;SDS011;53422;49.296;6.900;2024-02-15T04:40:39;10.25;;;3.30;;
66567;SDS011;53422;49.296;6.900;2024-02-15T04:43:05;4.88;;;3.20;;
66567;SDS011;53422;49.296;6.900;2024-02-15T04:45:31;5.85;;;2.83;;
66567;SDS011;53422;49.296;6.900;2024-02-15T04:47:57;5.78;;;3.10;;
66567;SDS011;53422;49.296;6.900;2024-02-15T04:50:26;6.45;;;2.88;;
66567;SDS011;53422;49.296;6.900;2024-02-15T04:52:53;6.55;;;3.20;;
66567;SDS011;53422;49.296;6.900;2024-02-15T04:55:18;6.15;;;2.75;;
66567;SDS011;53422;49.296;6.900;2024-02-15T04:57:45;4.93;;;3.25;;
66567;SDS011;53422;49.296;6.900;2024-02-15T05:00:14;5.70;;;3.65;;
66567;SDS011;53422;49.296;6.900;2024-02-15T05:02:40;9.00;;;3.30;;
66567;SDS011;53422;49.296;6.900;2024-02-15T05:05:06;6.05;;;3.08;;
66567;SDS011;53422;49.296;6.900;2024-02-15T05:07:33;5.03;;;2.78;;
66567;SDS011;53422;49.296;6.900;2024-02-15T05:10:00;9.15;;;2.88;;
66567;SDS011;53422;49.296;6.900;2024-02-15T05:12:27;6.13;;;3.45;;
66567;SDS011;53422;49.296;6.900;2024-02-15T05:14:53;8.48;;;2.60;;
66567;SDS011;53422;49.296;6.900;2024-02-15T05:17:18;5.38;;;3.33;;
66567;SDS011;53422;49.296;6.900;2024-02-15T05:19:44;7.82;;;4.00;;
66567;SDS011;53422;49.296;6.900;2024-02-15T05:22:10;6.38;;;4.57;;
66567;SDS011;53422;49.296;6.900;2024-02-15T05:24:36;7.15;;;3.20;;
66567;SDS011;53422;49.296;6.900;2024-02-15T05:27:03;4.45;;;2.55;;
66567;SDS011;53422;49.296;6.900;2024-02-15T05:29:29;5.97;;;3.67;;
66567;SDS011;53422;49.296;6.900;2024-02-15T05:31:59;4.75;;;3.22;;
66567;SDS011;53422;49.296;6.900;2024-02-15T05:34:25;6.47;;;3.10;;
66567;SDS011;53422;49.296;6.900;2024-02-15T05:36:51;5.13;;;3.17;;
66567;SDS011;53422;49.296;6.900;2024-02-15T05:39:17;9.57;;;4.03;;
66567;SDS011;53422;49.296;6.900;2024-02-15T05:41:46;5.97;;;3.03;;
66567;SDS011;53422;49.296;6.900;2024-02-15T05:44:12;5.43;;;3.33;;
66567;SDS011;53422;49.296;6.900;2024-02-15T05:46:39;6.38;;;3.55;;
66567;SDS011;53422;49.296;6.900;2024-02-15T05:49:05;5.97;;;3.53;;
66567;SDS011;53422;49.296;6.900;2024-02-15T05:51:31;6.38;;;3.58;;
66567;SDS011;53422;49.296;6.900;2024-02-15T05:53:58;8.75;;;3.35;;
66567;SDS011;53422;49.296;6.900;2024-02-15T05:56:24;9.93;;;4.10;;
66567;SDS011;53422;49.296;6.900;2024-02-15T05:58:51;4.40;;;2.78;;
66567;SDS011;53422;49.296;6.900;2024-02-15T06:01:17;7.72;;;3.67;;
66567;SDS011;53422;49.296;6.900;2024-02-15T06:03:43;7.72;;;3.70;;
66567;SDS011;53422;49.296;6.900;2024-02-15T06:06:10;5.05;;;2.90;;
66567;SDS011;53422;49.296;6.900;2024-02-15T06:08:36;5.88;;;3.30;;
66567;SDS011;53422;49.296;6.900;2024-02-15T06:11:03;8.50;;;4.35;;
66567;SDS011;53422;49.296;6.900;2024-02-15T06:13:30;6.38;;;3.60;;
66567;SDS011;53422;49.296;6.900;2024-02-15T06:15:56;9.70;;;4.13;;
66567;SDS011;53422;49.296;6.900;2024-02-15T06:18:22;6.38;;;4.55;;
66567;SDS011;53422;49.296;6.900;2024-02-15T06:20:51;7.15;;;3.80;;
66567;SDS011;53422;49.296;6.900;2024-02-15T06:23:17;9.48;;;3.75;;
66567;SDS011;53422;49.296;6.900;2024-02-15T06:25:46;6.68;;;3.80;;
66567;SDS011;53422;49.296;6.900;2024-02-15T06:28:15;5.72;;;3.97;;
66567;SDS011;53422;49.296;6.900;2024-02-15T06:31:04;7.15;;;3.25;;
66567;SDS011;53422;49.296;6.900;2024-02-15T06:33:52;5.35;;;3.33;;
66567;SDS011;53422;49.296;6.900;2024-02-15T06:36:49;7.03;;;3.40;;
66567;SDS011;53422;49.296;6.900;2024-02-15T06:39:35;5.50;;;3.35;;
66567;SDS011;53422;49.296;6.900;2024-02-15T06:42:09;5.13;;;3.25;;
66567;SDS011;53422;49.296;6.900;2024-02-15T06:44:37;5.00;;;2.78;;
66567;SDS011;53422;49.296;6.900;2024-02-15T06:47:06;5.20;;;2.90;;
66567;SDS011;53422;49.296;6.900;2024-02-15T06:49:34;6.45;;;3.30;;
66567;SDS011;53422;49.296;6.900;2024-02-15T06:51:59;7.75;;;4.45;;
66567;SDS011;53422;49.296;6.900;2024-02-15T06:54:27;5.18;;;4.35;;
66567;SDS011;53422;49.296;6.900;2024-02-15T06:56:53;8.35;;;3.58;;
66567;SDS011;53422;49.296;6.900;2024-02-15T06:59:19;5.88;;;3.13;;
66567;SDS011;53422;49.296;6.900;2024-02-15T07:01:47;7.43;;;3.08;;
66567;SDS011;53422;49.296;6.900;2024-02-15T07:04:17;7.28;;;3.20;;
66567;SDS011;53422;49.296;6.900;2024-02-15T07:06:44;7.05;;;2.80;;
66567;SDS011;53422;49.296;6.900;2024-02-15T07:09:12;7.05;;;3.83;;
66567;SDS011;53422;49.296;6.900;2024-02-15T07:11:40;4.25;;;2.75;;
66567;SDS011;53422;49.296;6.900;2024-02-15T07:14:06;5.60;;;2.97;;
66567;SDS011;53422;49.296;6.900;2024-02-15T07:16:34;6.22;;;3.63;;
66567;SDS011;53422;49.296;6.900;2024-02-15T07:19:00;7.65;;;2.92;;
66567;SDS011;53422;49.296;6.900;2024-02-15T07:21:26;4.95;;;2.47;;
66567;SDS011;53422;49.296;6.900;2024-02-15T07:23:55;5.45;;;2.63;;
66567;SDS011;53422;49.296;6.900;2024-02-15T07:26:22;4.97;;;2.70;;
66567;SDS011;53422;49.296;6.900;2024-02-15T07:28:51;4.68;;;2.90;;
66567;SDS011;53422;49.296;6.900;2024-02-15T07:33:44;6.63;;;3.03;;
66567;SDS011;53422;49.296;6.900;2024-02-15T07:36:10;4.22;;;2.55;;
66567;SDS011;53422;49.296;6.900;2024-02-15T07:38:35;6.25;;;2.47;;
66567;SDS011;53422;49.296;6.900;2024-02-15T07:41:01;6.35;;;2.53;;
66567;SDS011;53422;49.296;6.900;2024-02-15T07:43:27;5.55;;;2.65;;
66567;SDS011;53422;49.296;6.900;2024-02-15T07:45:53;5.13;;;3.15;;
66567;SDS011;53422;49.296;6.900;2024-02-15T07:48:18;6.78;;;3.15;;
66567;SDS011;53422;49.296;6.900;2024-02-15T07:50:44;5.75;;;2.92;;
66567;SDS011;53422;49.296;6.900;2024-02-15T07:53:10;4.50;;;2.67;;
66567;SDS011;53422;49.296;6.900;2024-02-15T07:55:37;6.97;;;3.40;;
66567;SDS011;53422;49.296;6.900;2024-02-15T07:58:03;7.10;;;4.07;;
66567;SDS011;53422;49.296;6.900;2024-02-15T08:00:30;7.03;;;3.28;;
66567;SDS011;53422;49.296;6.900;2024-02-15T08:02:55;7.03;;;3.38;;
66567;SDS011;53422;49.296;6.900;2024-02-15T08:05:22;6.05;;;3.25;;
66567;SDS011;53422;49.296;6.900;2024-02-15T08:07:48;4.10;;;3.03;;
66567;SDS011;53422;49.296;6.900;2024-02-15T08:10:14;4.40;;;2.85;;
66567;SDS011;53422;49.296;6.900;2024-02-15T08:12:41;6.18;;;2.28;;
66567;SDS011;53422;49.296;6.900;2024-02-15T08:15:08;6.45;;;2.42;;
66567;SDS011;53422;49.296;6.900;2024-02-15T08:17:45;6.20;;;3.08;;
66567;SDS011;53422;49.296;6.900;2024-02-15T08:20:11;5.00;;;2.42;;
66567;SDS011;53422;49.296;6.900;2024-02-15T08:22:38;5.88;;;3.25;;
66567;SDS011;53422;49.296;6.900;2024-02-15T08:25:10;6.32;;;3.13;;
66567;SDS011;53422;49.296;6.900;2024-02-15T08:27:37;5.15;;;2.67;;
66567;SDS011;53422;49.296;6.900;2024-02-15T08:30:11;5.38;;;2.42;;
66567;SDS011;53422;49.296;6.900;2024-02-15T08:32:38;7.13;;;2.78;;
66567;SDS011;53422;49.296;6.900;2024-02-15T08:35:11;5.55;;;2.92;;
66567;SDS011;53422;49.296;6.900;2024-02-15T08:37:38;6.60;;;3.33;;
66567;SDS011;53422;49.296;6.900;2024-02-15T08:40:04;5.43;;;3.60;;
66567;SDS011;53422;49.296;6.900;2024-02-15T08:42:41;5.70;;;2.53;;
66567;SDS011;53422;49.296;6.900;2024-02-15T08:45:07;5.93;;;3.30;;
66567;SDS011;53422;49.296;6.900;2024-02-15T08:47:40;6.38;;;3.40;;
66567;SDS011;53422;49.296;6.900;2024-02-15T08:50:08;7.30;;;3.10;;
66567;SDS011;53422;49.296;6.900;2024-02-15T08:52:38;5.75;;;3.05;;
66567;SDS011;53422;49.296;6.900;2024-02-15T08:55:08;3.60;;;2.47;;
66567;SDS011;53422;49.296;6.900;2024-02-15T08:57:34;4.57;;;2.40;;
66567;SDS011;53422;49.296;6.900;2024-02-15T09:00:04;8.48;;;2.05;;
66567;SDS011;53422;49.296;6.900;2024-02-15T09:02:34;3.75;;;2.85;;
66567;SDS011;53422;49.296;6.900;2024-02-15T09:05:00;6.43;;;2.33;;
66567;SDS011;53422;49.296;6.900;2024-02-15T09:07:26;6.85;;;1.83;;
66567;SDS011;53422;49.296;6.900;2024-02-15T09:09:51;3.83;;;2.67;;
66567;SDS011;53422;49.296;6.900;2024-02-15T09:12:17;6.55;;;2.70;;
66567;SDS011;53422;49.296;6.900;2024-02-15T09:14:43;6.15;;;3.17;;
66567;SDS011;53422;49.296;6.900;2024-02-15T09:17:08;6.65;;;2.58;;
66567;SDS011;53422;49.296;6.900;2024-02-15T09:19:34;2.95;;;2.38;;
66567;SDS011;53422;49.296;6.900;2024-02-15T09:22:01;4.03;;;2.60;;
66567;SDS011;53422;49.296;6.900;2024-02-15T09:24:29;4.10;;;1.95;;
66567;SDS011;53422;49.296;6.900;2024-02-15T09:27:01;5.63;;;2.13;;
66567;SDS011;53422;49.296;6.900;2024-02-15T09:29:28;7.95;;;2.47;;
66567;SDS011;53422;49.296;6.900;2024-02-15T09:32:00;6.38;;;2.92;;
66567;SDS011;53422;49.296;6.900;2024-02-15T09:34:28;3.88;;;2.25;;
66567;SDS011;53422;49.296;6.900;2024-02-15T09:36:55;5.15;;;2.55;;
66567;SDS011;53422;49.296;6.900;2024-02-15T09:39:22;2.60;;;2.20;;
66567;SDS011;53422;49.296;6.900;2024-02-15T09:41:48;4.43;;;2.60;;
66567;SDS011;53422;49.296;6.900;2024-02-15T09:44:23;3.63;;;1.90;;
66567;SDS011;53422;49.296;6.900;2024-02-15T09:46:54;5.72;;;3.13;;
66567;SDS011;53422;49.296;6.900;2024-02-15T09:49:28;4.10;;;2.50;;
66567;SDS011;53422;49.296;6.900;2024-02-15T09:51:55;5.65;;;2.78;;
66567;SDS011;53422;49.296;6.900;2024-02-15T09:54:23;4.57;;;2.50;;
66567;SDS011;53422;49.296;6.900;2024-02-15T09:56:50;3.88;;;2.00;;
66567;SDS011;53422;49.296;6.900;2024-02-15T09:59:20;4.95;;;2.22;;
66567;SDS011;53422;49.296;6.900;2024-02-15T10:01:46;3.60;;;2.20;;
66567;SDS011;53422;49.296;6.900;2024-02-15T10:04:13;3.40;;;2.63;;
66567;SDS011;53422;49.296;6.900;2024-02-15T10:06:41;4.22;;;2.53;;
66567;SDS011;53422;49.296;6.900;2024-02-15T10:12:09;7.00;;;2.60;;
66567;SDS011;53422;49.296;6.900;2024-02-15T10:14:35;3.47;;;2.15;;
66567;SDS011;53422;49.296;6.900;2024-02-15T10:17:07;2.67;;;1.98;;
66567;SDS011;53422;49.296;6.900;2024-02-15T10:19:39;2.47;;;1.88;;
66567;SDS011;53422;49.296;6.900;2024-02-15T10:22:07;3.58;;;1.98;;
66567;SDS011;53422;49.296;6.900;2024-02-15T10:24:34;5.22;;;2.35;;
66567;SDS011;53422;49.296;6.900;2024-02-15T10:27:02;2.88;;;2.22;;
66567;SDS011;53422;49.296;6.900;2024-02-15T10:29:29;3.05;;;1.73;;
66567;SDS011;53422;49.296;6.900;2024-02-15T10:31:59;3.67;;;1.55;;
66567;SDS011;53422;49.296;6.900;2024-02-15T10:34:26;4.95;;;2.42;;
66567;SDS011;53422;49.296;6.900;2024-02-15T10:36:53;3.03;;;1.85;;
66567;SDS011;53422;49.296;6.900;2024-02-15T10:39:21;2.45;;;1.55;;
66567;SDS011;53422;49.296;6.900;2024-02-15T10:41:52;2.17;;;1.40;;
66567;SDS011;53422;49.296;6.900;2024-02-15T10:44:22;4.80;;;1.88;;
66567;SDS011;53422;49.296;6.900;2024-02-15T10:46:50;2.75;;;2.00;;
66567;SDS011;53422;49.296;6.900;2024-02-15T10:49:23;3.17;;;1.98;;
66567;SDS011;53422;49.296;6.900;2024-02-15T10:51:52;3.38;;;1.83;;
66567;SDS011;53422;49.296;6.900;2024-02-15T10:54:40;3.70;;;1.90;;
66567;SDS011;53422;49.296;6.900;2024-02-15T10:57:12;4.63;;;1.88;;
66567;SDS011;53422;49.296;6.900;2024-02-15T10:59:57;2.55;;;2.03;;
66567;SDS011;53422;49.296;6.900;2024-02-15T11:04:55;4.20;;;2.42;;
66567;SDS011;53422;49.296;6.900;2024-02-15T11:07:31;2.65;;;1.50;;
66567;SDS011;53422;49.296;6.900;2024-02-15T11:09:57;4.35;;;1.80;;
66567;SDS011;53422;49.296;6.900;2024-02-15T11:12:24;2.75;;;1.42;;
66567;SDS011;53422;49.296;6.900;2024-02-15T11:14:53;4.30;;;2.35;;
66567;SDS011;53422;49.296;6.900;2024-02-15T11:20:09;2.40;;;1.88;;
66567;SDS011;53422;49.296;6.900;2024-02-15T11:22:36;2.05;;;1.65;;
66567;SDS011;53422;49.296;6.900;2024-02-15T11:25:06;2.30;;;1.50;;
66567;SDS011;53422;49.296;6.900;2024-02-15T11:27:36;6.57;;;2.05;;
66567;SDS011;53422;49.296;6.900;2024-02-15T11:30:03;3.53;;;1.77;;
66567;SDS011;53422;49.296;6.900;2024-02-15T11:40:16;5.15;;;1.73;;
66567;SDS011;53422;49.296;6.900;2024-02-15T11:42:49;3.00;;;1.80;;
66567;SDS011;53422;49.296;6.900;2024-02-15T11:45:18;2.22;;;1.92;;
66567;SDS011;53422;49.296;6.900;2024-02-15T11:47:46;2.88;;;1.65;;
66567;SDS011;53422;49.296;6.900;2024-02-15T11:50:17;4.65;;;2.28;;
66567;SDS011;53422;49.296;6.900;2024-02-15T11:52:45;2.17;;;1.73;;
66567;SDS011;53422;49.296;6.900;2024-02-15T11:55:17;2.30;;;1.55;;
66567;SDS011;53422;49.296;6.900;2024-02-15T11:57:56;3.63;;;1.77;;
66567;SDS011;53422;49.296;6.900;2024-02-15T12:00:35;2.42;;;1.90;;
66567;SDS011;53422;49.296;6.900;2024-02-15T12:03:21;3.22;;;1.40;;
66567;SDS011;53422;49.296;6.900;2024-02-15T12:06:06;2.03;;;1.77;;
66567;SDS011;53422;49.296;6.900;2024-02-15T12:08:52;4.63;;;1.20;;
66567;SDS011;53422;49.296;6.900;2024-02-15T12:11:37;2.10;;;1.80;;
66567;SDS011;53422;49.296;6.900;2024-02-15T12:14:22;1.50;;;1.20;;
66567;SDS011;53422;49.296;6.900;2024-02-15T12:17:07;2.42;;;1.50;;
66567;SDS011;53422;49.296;6.900;2024-02-15T12:19:53;1.95;;;1.70;;
66567;SDS011;53422;49.296;6.900;2024-02-15T12:22:28;3.60;;;1.75;;
66567;SDS011;53422;49.296;6.900;2024-02-15T12:24:59;3.28;;;1.95;;
66567;SDS011;53422;49.296;6.900;2024-02-15T12:27:26;2.95;;;1.80;;
66567;SDS011;53422;49.296;6.900;2024-02-15T12:29:59;2.60;;;1.52;;
66567;SDS011;53422;49.296;6.900;2024-02-15T12:32:25;1.85;;;1.40;;
66567;SDS011;53422;49.296;6.900;2024-02-15T12:34:52;6.68;;;1.67;;
66567;SDS011;53422;49.296;6.900;2024-02-15T12:37:34;1.75;;;1.20;;
66567;SDS011;53422;49.296;6.900;2024-02-15T12:40:09;3.25;;;1.38;;
66567;SDS011;53422;49.296;6.900;2024-02-15T12:42:39;2.20;;;1.90;;
66567;SDS011;53422;49.296;6.900;2024-02-15T12:45:04;1.80;;;1.20;;
66567;SDS011;53422;49.296;6.900;2024-02-15T12:47:33;4.00;;;1.58;;
66567;SDS011;53422;49.296;6.900;2024-02-15T12:49:58;2.17;;;1.27;;
66567;SDS011;53422;49.296;6.900;2024-02-15T12:52:39;1.85;;;1.30;;
66567;SDS011;53422;49.296;6.900;2024-02-15T12:57:35;3.85;;;1.50;;
66567;SDS011;53422;49.296;6.900;2024-02-15T13:00:01;4.22;;;1.73;;
66567;SDS011;53422;49.296;6.900;2024-02-15T13:02:36;1.55;;;1.45;;
66567;SDS011;53422;49.296;6.900;2024-02-15T13:05:05;2.70;;;1.50;;
66567;SDS011;53422;49.296;6.900;2024-02-15T13:07:35;1.70;;;1.35;;
66567;SDS011;53422;49.296;6.900;2024-02-15T13:10:02;5.10;;;1.80;;
66567;SDS011;53422;49.296;6.900;2024-02-15T13:12:28;2.42;;;1.88;;
66567;SDS011;53422;49.296;6.900;2024-02-15T13:14:54;3.28;;;1.45;;
66567;SDS011;53422;49.296;6.900;2024-02-15T13:17:20;1.83;;;0.80;;
66567;SDS011;53422;49.296;6.900;2024-02-15T13:19:46;2.65;;;1.30;;
66567;SDS011;53422;49.296;6.900;2024-02-15T13:22:14;1.77;;;1.40;;
66567;SDS011;53422;49.296;6.900;2024-02-15T13:24:41;4.22;;;1.77;;
66567;SDS011;53422;49.296;6.900;2024-02-15T13:27:07;3.55;;;1.30;;
66567;SDS011;53422;49.296;6.900;2024-02-15T13:29:37;5.05;;;1.75;;
66567;SDS011;53422;49.296;6.900;2024-02-15T13:32:05;3.10;;;0.77;;
66567;SDS011;53422;49.296;6.900;2024-02-15T13:34:31;2.58;;;1.63;;
66567;SDS011;53422;49.296;6.900;2024-02-15T13:37:00;2.13;;;1.35;;
66567;SDS011;53422;49.296;6.900;2024-02-15T13:39:29;3.38;;;1.58;;
66567;SDS011;53422;49.296;6.900;2024-02-15T13:41:58;1.40;;;1.30;;
66567;SDS011;53422;49.296;6.900;2024-02-15T13:44:27;2.40;;;1.50;;
66567;SDS011;53422;49.296;6.900;2024-02-15T13:49:22;1.73;;;1.35;;
66567;SDS011;53422;49.296;6.900;2024-02-15T13:51:47;3.17;;;1.45;;
66567;SDS011;53422;49.296;6.900;2024-02-15T13:54:14;1.95;;;1.25;;
66567;SDS011;53422;49.296;6.900;2024-02-15T13:56:39;2.33;;;1.40;;
66567;SDS011;53422;49.296;6.900;2024-02-15T13:59:05;2.15;;;1.63;;
66567;SDS011;53422;49.296;6.900;2024-02-15T14:01:31;2.90;;;1.27;;
66567;SDS011;53422;49.296;6.900;2024-02-15T14:03:59;3.20;;;1.40;;
66567;SDS011;53422;49.296;6.900;2024-02-15T14:06:25;3.03;;;1.52;;
66567;SDS011;53422;49.296;6.900;2024-02-15T14:08:51;2.78;;;1.58;;
66567;SDS011;53422;49.296;6.900;2024-02-15T14:11:20;2.10;;;1.35;;
66567;SDS011;53422;49.296;6.900;2024-02-15T14:13:46;3.05;;;1.50;;
66567;SDS011;53422;49.296;6.900;2024-02-15T14:16:12;2.22;;;1.40;;
66567;SDS011;53422;49.296;6.900;2024-02-15T14:18:37;1.77;;;1.48;;
66567;SDS011;53422;49.296;6.900;2024-02-15T14:21:04;1.83;;;1.30;;
66567;SDS011;53422;49.296;6.900;2024-02-15T14:23:29;3.53;;;1.58;;
66567;SDS011;53422;49.296;6.900;2024-02-15T14:25:55;2.97;;;1.80;;
66567;SDS011;53422;49.296;6.900;2024-02-15T14:28:25;1.63;;;1.33;;
66567;SDS011;53422;49.296;6.900;2024-02-15T14:30:50;2.33;;;1.33;;
66567;SDS011;53422;49.296;6.900;2024-02-15T14:33:34;3.47;;;1.63;;
66567;SDS011;53422;49.296;6.900;2024-02-15T14:36:00;2.63;;;1.23;;
66567;SDS011;53422;49.296;6.900;2024-02-15T14:38:26;2.40;;;1.85;;
66567;SDS011;53422;49.296;6.900;2024-02-15T14:40:51;3.58;;;1.80;;
66567;SDS011;53422;49.296;6.900;2024-02-15T14:43:23;2.88;;;1.73;;
66567;SDS011;53422;49.296;6.900;2024-02-15T14:45:51;4.75;;;1.92;;
66567;SDS011;53422;49.296;6.900;2024-02-15T14:48:18;6.47;;;2.53;;
66567;SDS011;53422;49.296;6.900;2024-02-15T14:50:45;3.22;;;1.27;;
66567;SDS011;53422;49.296;6.900;2024-02-15T14:53:14;2.25;;;1.65;;
66567;SDS011;53422;49.296;6.900;2024-02-15T14:55:40;4.35;;;1.52;;
66567;SDS011;53422;49.296;6.900;2024-02-15T14:58:08;1.98;;;1.55;;
66567;SDS011;53422;49.296;6.900;2024-02-15T15:00:34;4.07;;;2.38;;
66567;SDS011;53422;49.296;6.900;2024-02-15T15:03:00;5.20;;;1.88;;
66567;SDS011;53422;49.296;6.900;2024-02-15T15:05:27;4.90;;;1.98;;
66567;SDS011;53422;49.296;6.900;2024-02-15T15:08:11;3.83;;;1.42;;
66567;SDS011;53422;49.296;6.900;2024-02-15T15:10:56;2.38;;;1.27;;
66567;SDS011;53422;49.296;6.900;2024-02-15T15:13:56;4.97;;;1.55;;
66567;SDS011;53422;49.296;6.900;2024-02-15T15:16:23;2.80;;;2.00;;
66567;SDS011;53422;49.296;6.900;2024-02-15T15:18:50;2.45;;;1.40;;